Time;durP1;ratioP1;P1;durP2;ratioP2;P2;SDS_P1;SDS_P2;PMS_P1;PMS_P2;Temp;Humidity;BMP_temperature;BMP_pressure;BME280_temperature;BME280_humidity;BME280_pressure;Samples;Min_cycle;Max_cycle;Signal;HPM_P1;HPM_P2
2021/09/13 00:00:08;;;;;;;25.95;9.15;;;;;;;;;;5020878;28;20033;-44
2021/09/13 00:02:34;;;;;;;18.40;8.95;;;;;;;;;;5020840;28;20064;-44
2021/09/13 00:05:00;;;;;;;19.15;9.32;;;;;;;;;;5039423;28;20115;-45
2021/09/13 00:07:26;;;;;;;21.70;9.05;;;;;;;;;;5075914;28;20040;-46
2021/09/13 00:09:52;;;;;;;27.23;12.05;;;;;;;;;;5074737;28;20119;-45
2021/09/13 00:12:19;;;;;;;24.73;10.55;;;;;;;;;;5075915;28;20029;-45
2021/09/13 00:14:45;;;;;;;20.55;9.80;;;;;;;;;;5075919;28;20025;-46
2021/09/13 00:17:11;;;;;;;18.20;8.77;;;;;;;;;;5075747;28;20025;-45
2021/09/13 00:19:37;;;;;;;14.48;7.90;;;;;;;;;;5075639;28;20020;-46
2021/09/13 00:22:04;;;;;;;31.55;14.95;;;;;;;;;;5075517;28;20066;-43
2021/09/13 00:24:30;;;;;;;26.23;12.05;;;;;;;;;;5075638;28;20102;-45
2021/09/13 00:26:58;;;;;;;21.67;9.60;;;;;;;;;;5075505;28;20047;-46
2021/09/13 00:29:26;;;;;;;18.85;8.38;;;;;;;;;;5075371;28;20032;-47
2021/09/13 00:31:52;;;;;;;21.42;8.88;;;;;;;;;;5075369;28;20584;-45
2021/09/13 00:34:18;;;;;;;20.63;11.55;;;;;;;;;;5075410;28;20029;-44
2021/09/13 00:36:44;;;;;;;18.60;10.63;;;;;;;;;;5075483;28;20108;-45
2021/09/13 00:39:10;;;;;;;17.08;9.73;;;;;;;;;;5075319;28;20074;-44
2021/09/13 00:41:41;;;;;;;27.10;13.13;;;;;;;;;;5075325;28;20033;-45
2021/09/13 00:44:07;;;;;;;46.67;26.88;;;;;;;;;;5075163;28;20042;-45
2021/09/13 00:46:33;;;;;;;26.80;13.88;;;;;;;;;;5075095;28;20032;-45
2021/09/13 00:49:02;;;;;;;15.48;8.98;;;;;;;;;;5075248;28;20036;-45
2021/09/13 00:51:28;;;;;;;18.45;10.15;;;;;;;;;;5074926;28;20039;-45
2021/09/13 00:53:54;;;;;;;15.25;8.82;;;;;;;;;;5075095;28;20461;-45
2021/09/13 00:56:20;;;;;;;18.70;8.85;;;;;;;;;;5075033;28;20086;-44
2021/09/13 00:58:47;;;;;;;20.83;10.65;;;;;;;;;;5074766;28;20028;-45
2021/09/13 01:01:13;;;;;;;14.95;7.50;;;;;;;;;;5074900;28;20028;-44
2021/09/13 01:03:39;;;;;;;20.23;8.77;;;;;;;;;;5074785;28;20039;-45
2021/09/13 01:06:06;;;;;;;18.27;8.68;;;;;;;;;;5074816;28;20116;-45
2021/09/13 01:08:32;;;;;;;16.50;8.85;;;;;;;;;;5074187;28;20027;-44
2021/09/13 01:10:59;;;;;;;15.95;9.93;;;;;;;;;;5074726;28;20028;-44
2021/09/13 01:13:28;;;;;;;12.55;7.88;;;;;;;;;;5074676;28;20059;-44
2021/09/13 01:15:54;;;;;;;15.10;7.90;;;;;;;;;;5074655;28;20023;-44
2021/09/13 01:18:20;;;;;;;22.23;8.65;;;;;;;;;;5074840;28;20105;-45
2021/09/13 01:20:47;;;;;;;17.02;7.55;;;;;;;;;;5074504;28;20029;-46
2021/09/13 01:23:19;;;;;;;15.10;7.00;;;;;;;;;;5074311;28;20047;-46
2021/09/13 01:25:45;;;;;;;13.13;8.15;;;;;;;;;;5074499;28;20465;-45
2021/09/13 01:28:11;;;;;;;16.83;7.57;;;;;;;;;;5074522;28;20028;-46
2021/09/13 01:30:40;;;;;;;13.98;7.47;;;;;;;;;;5074422;28;20032;-44
2021/09/13 01:33:06;;;;;;;12.05;7.22;;;;;;;;;;5074213;28;20039;-45
2021/09/13 01:35:32;;;;;;;16.80;7.68;;;;;;;;;;5074409;28;20086;-44
2021/09/13 01:37:58;;;;;;;11.30;8.10;;;;;;;;;;5074316;28;20052;-46
2021/09/13 01:40:24;;;;;;;11.50;7.40;;;;;;;;;;5074167;28;20027;-44
2021/09/13 01:42:50;;;;;;;15.25;7.97;;;;;;;;;;5074071;28;20039;-45
2021/09/13 01:45:18;;;;;;;16.15;7.50;;;;;;;;;;5074004;28;20469;-44
2021/09/13 01:47:45;;;;;;;13.73;7.32;;;;;;;;;;5074206;28;20016;-44
2021/09/13 01:50:11;;;;;;;15.05;7.68;;;;;;;;;;5073877;28;20053;-44
2021/09/13 01:52:37;;;;;;;12.77;7.43;;;;;;;;;;5073937;28;20512;-44
2021/09/13 01:55:03;;;;;;;12.85;7.32;;;;;;;;;;5073951;28;20044;-45
2021/09/13 01:57:29;;;;;;;12.00;7.45;;;;;;;;;;5073859;28;20469;-45
2021/09/13 01:59:55;;;;;;;14.15;7.40;;;;;;;;;;5073798;28;20033;-45
2021/09/13 02:02:21;;;;;;;19.13;10.05;;;;;;;;;;5073828;28;20025;-45
2021/09/13 02:04:47;;;;;;;19.13;7.75;;;;;;;;;;5073769;28;20032;-45
2021/09/13 02:07:13;;;;;;;12.57;7.43;;;;;;;;;;5073676;28;20025;-45
2021/09/13 02:09:39;;;;;;;17.75;7.63;;;;;;;;;;5073684;28;20032;-44
2021/09/13 02:12:06;;;;;;;13.38;7.75;;;;;;;;;;5073527;28;20396;-44
2021/09/13 02:14:32;;;;;;;10.13;6.63;;;;;;;;;;5073414;28;20480;-44
2021/09/13 02:16:58;;;;;;;14.30;7.35;;;;;;;;;;5073823;28;20480;-44
2021/09/13 02:19:24;;;;;;;17.80;7.60;;;;;;;;;;5072552;28;20025;-45
2021/09/13 02:21:50;;;;;;;11.70;6.63;;;;;;;;;;5073411;28;20102;-45
2021/09/13 02:24:16;;;;;;;14.88;8.02;;;;;;;;;;5073462;28;20055;-45
2021/09/13 02:26:42;;;;;;;12.68;7.72;;;;;;;;;;5073623;28;20021;-45
2021/09/13 02:29:08;;;;;;;14.70;8.20;;;;;;;;;;5073248;28;20044;-45
2021/09/13 02:31:34;;;;;;;19.92;8.52;;;;;;;;;;5073380;28;20028;-46
2021/09/13 02:34:00;;;;;;;14.07;7.50;;;;;;;;;;5073179;28;20543;-46
2021/09/13 02:36:26;;;;;;;12.32;7.80;;;;;;;;;;5073470;28;20139;-46
2021/09/13 02:38:53;;;;;;;18.08;8.30;;;;;;;;;;5071933;28;20021;-46
2021/09/13 02:41:19;;;;;;;11.88;7.72;;;;;;;;;;5073289;28;20036;-45
2021/09/13 02:43:45;;;;;;;16.83;8.32;;;;;;;;;;5073283;28;20468;-45
2021/09/13 02:46:14;;;;;;;15.77;8.25;;;;;;;;;;5073391;28;20032;-45
2021/09/13 02:48:40;;;;;;;14.18;8.02;;;;;;;;;;5072011;28;20369;-45
2021/09/13 02:51:06;;;;;;;20.80;9.75;;;;;;;;;;5073095;28;20028;-45
2021/09/13 02:53:35;;;;;;;20.05;8.48;;;;;;;;;;5073101;28;20028;-45
2021/09/13 02:56:01;;;;;;;15.25;8.63;;;;;;;;;;5072955;28;20029;-44
2021/09/13 02:58:29;;;;;;;14.45;8.40;;;;;;;;;;5073191;28;20021;-46
2021/09/13 03:00:56;;;;;;;17.40;9.25;;;;;;;;;;5073092;28;20065;-45
2021/09/13 03:03:22;;;;;;;15.85;8.93;;;;;;;;;;5073051;28;20443;-45
2021/09/13 03:05:48;;;;;;;16.02;8.73;;;;;;;;;;5072970;28;20033;-45
2021/09/13 03:08:14;;;;;;;20.17;9.25;;;;;;;;;;5072961;28;20021;-46
2021/09/13 03:10:40;;;;;;;17.95;9.32;;;;;;;;;;5072872;28;20532;-44
2021/09/13 03:13:06;;;;;;;16.60;8.90;;;;;;;;;;5072762;28;20119;-44
2021/09/13 03:15:34;;;;;;;16.23;8.68;;;;;;;;;;5072823;28;20027;-45
2021/09/13 03:18:01;;;;;;;20.50;9.65;;;;;;;;;;5072836;28;20028;-44
2021/09/13 03:20:27;;;;;;;19.48;9.43;;;;;;;;;;5072979;28;20066;-44
2021/09/13 03:22:53;;;;;;;15.68;8.95;;;;;;;;;;5072729;28;20054;-45
2021/09/13 03:25:19;;;;;;;21.00;9.15;;;;;;;;;;5072879;28;20082;-44
2021/09/13 03:27:45;;;;;;;15.05;8.77;;;;;;;;;;5072630;28;20032;-45
2021/09/13 03:30:12;;;;;;;15.30;8.77;;;;;;;;;;5073496;28;20099;-45
2021/09/13 03:32:38;;;;;;;16.42;9.70;;;;;;;;;;5076926;28;20064;-45
2021/09/13 03:35:04;;;;;;;15.18;9.20;;;;;;;;;;5076429;28;20025;-45
2021/09/13 03:37:30;;;;;;;15.02;9.43;;;;;;;;;;5076634;28;20036;-44
2021/09/13 03:39:56;;;;;;;16.85;9.85;;;;;;;;;;5076533;28;20016;-46
2021/09/13 03:42:22;;;;;;;18.08;10.07;;;;;;;;;;5076431;28;20077;-45
2021/09/13 03:44:48;;;;;;;21.73;9.48;;;;;;;;;;5074983;28;20492;-44
2021/09/13 03:47:14;;;;;;;22.50;9.55;;;;;;;;;;5076408;28;20032;-44
2021/09/13 03:49:40;;;;;;;18.70;9.77;;;;;;;;;;5076457;28;20024;-44
2021/09/13 03:52:09;;;;;;;19.98;9.55;;;;;;;;;;5076212;28;20032;-44
2021/09/13 03:54:36;;;;;;;19.75;10.50;;;;;;;;;;5076228;28;20025;-44
2021/09/13 03:57:02;;;;;;;18.52;10.05;;;;;;;;;;5076296;28;20031;-45
2021/09/13 03:59:28;;;;;;;16.00;9.65;;;;;;;;;;5075945;28;20174;-45
2021/09/13 04:01:54;;;;;;;19.05;9.25;;;;;;;;;;5076053;28;20029;-45
2021/09/13 04:04:25;;;;;;;23.35;10.55;;;;;;;;;;5075954;28;20060;-45
2021/09/13 04:06:54;;;;;;;16.42;9.48;;;;;;;;;;5075925;28;20036;-44
2021/09/13 04:12:09;;;;;;;21.65;9.95;;;;;;;;;;5053757;28;20436;-46
2021/09/13 04:14:35;;;;;;;18.55;9.02;;;;;;;;;;5053775;28;20048;-45
2021/09/13 04:17:01;;;;;;;18.17;9.02;;;;;;;;;;5053772;28;20040;-45
2021/09/13 04:19:28;;;;;;;18.33;9.75;;;;;;;;;;5053562;28;20116;-45
2021/09/13 04:21:54;;;;;;;13.15;8.10;;;;;;;;;;5053568;28;20052;-45
2021/09/13 04:24:20;;;;;;;20.02;9.85;;;;;;;;;;5053657;28;20106;-44
2021/09/13 04:26:47;;;;;;;21.13;9.55;;;;;;;;;;5053385;28;20528;-44
2021/09/13 04:29:15;;;;;;;23.52;12.40;;;;;;;;;;5053335;28;20059;-45
2021/09/13 04:31:41;;;;;;;21.98;10.93;;;;;;;;;;5053323;28;20155;-44
2021/09/13 04:34:07;;;;;;;28.92;10.73;;;;;;;;;;5053186;28;20072;-45
2021/09/13 04:36:33;;;;;;;21.63;10.65;;;;;;;;;;5053513;28;20048;-45
2021/09/13 04:38:59;;;;;;;24.75;11.23;;;;;;;;;;5053227;28;20509;-45
2021/09/13 04:41:25;;;;;;;26.45;12.68;;;;;;;;;;5052432;28;20036;-45
2021/09/13 04:43:51;;;;;;;23.65;12.25;;;;;;;;;;5053011;28;20116;-46
2021/09/13 04:46:17;;;;;;;20.35;10.80;;;;;;;;;;5053108;28;20477;-45
2021/09/13 04:48:43;;;;;;;30.63;14.80;;;;;;;;;;5060124;28;20090;-45
2021/09/13 04:51:10;;;;;;;28.80;14.07;;;;;;;;;;5075361;28;20032;-44
2021/09/13 04:53:36;;;;;;;19.15;10.48;;;;;;;;;;5075168;28;20530;-43
2021/09/13 04:56:02;;;;;;;18.05;9.63;;;;;;;;;;5075077;28;20570;-44
2021/09/13 04:58:28;;;;;;;18.27;9.00;;;;;;;;;;5075313;28;20033;-44
2021/09/13 05:00:54;;;;;;;20.25;9.85;;;;;;;;;;5074843;28;20056;-44
2021/09/13 05:03:20;;;;;;;27.38;12.55;;;;;;;;;;5074796;28;20027;-47
2021/09/13 05:05:46;;;;;;;15.15;9.25;;;;;;;;;;5074836;28;20389;-45
2021/09/13 05:08:12;;;;;;;24.90;9.63;;;;;;;;;;5074939;28;20094;-46
2021/09/13 05:10:38;;;;;;;15.80;8.80;;;;;;;;;;5074756;28;20035;-47
2021/09/13 05:13:05;;;;;;;18.35;7.68;;;;;;;;;;5074577;28;20029;-46
2021/09/13 05:15:31;;;;;;;12.30;7.38;;;;;;;;;;5065809;28;20017;-47
2021/09/13 05:17:57;;;;;;;17.63;7.28;;;;;;;;;;5034527;28;20029;-46
2021/09/13 05:20:26;;;;;;;11.93;7.25;;;;;;;;;;5046389;28;20431;-46
2021/09/13 05:22:52;;;;;;;85.15;34.38;;;;;;;;;;5054045;28;20056;-48
2021/09/13 05:25:19;;;;;;;22.23;11.07;;;;;;;;;;5054141;28;20018;-47
2021/09/13 05:27:45;;;;;;;16.98;7.88;;;;;;;;;;5053963;28;20025;-47
2021/09/13 05:30:12;;;;;;;59.40;38.22;;;;;;;;;;5053958;28;20477;-46
2021/09/13 05:32:38;;;;;;;16.75;9.93;;;;;;;;;;5054031;28;20594;-45
2021/09/13 05:35:04;;;;;;;25.73;13.48;;;;;;;;;;5054285;28;20032;-47
2021/09/13 05:37:30;;;;;;;16.15;8.60;;;;;;;;;;5053945;28;20040;-45
2021/09/13 05:39:58;;;;;;;16.27;9.27;;;;;;;;;;5054042;28;20062;-45
2021/09/13 05:42:24;;;;;;;21.40;8.85;;;;;;;;;;5051220;28;20049;-45
2021/09/13 05:44:50;;;;;;;13.75;8.00;;;;;;;;;;5053778;28;20021;-47
2021/09/13 05:47:17;;;;;;;15.82;7.10;;;;;;;;;;5053923;28;20025;-45
2021/09/13 05:49:43;;;;;;;17.77;8.43;;;;;;;;;;5053648;28;20022;-45
2021/09/13 05:52:09;;;;;;;19.02;9.60;;;;;;;;;;5053640;28;20029;-45
2021/09/13 05:54:35;;;;;;;17.27;7.93;;;;;;;;;;5053482;28;20495;-47
2021/09/13 05:57:01;;;;;;;18.65;7.35;;;;;;;;;;5053450;28;20029;-46
2021/09/13 05:59:27;;;;;;;15.23;8.15;;;;;;;;;;5053634;28;20096;-46
2021/09/13 06:01:55;;;;;;;27.52;10.32;;;;;;;;;;5053996;28;20412;-46
2021/09/13 06:04:22;;;;;;;24.38;9.70;;;;;;;;;;5053900;28;20108;-46
2021/09/13 06:06:48;;;;;;;15.18;9.25;;;;;;;;;;5053958;28;20036;-46
2021/09/13 06:09:14;;;;;;;21.63;8.35;;;;;;;;;;5053890;28;20431;-46
2021/09/13 06:11:40;;;;;;;15.00;9.27;;;;;;;;;;5053974;28;20033;-47
2021/09/13 06:14:06;;;;;;;19.35;8.23;;;;;;;;;;5053744;28;20033;-46
2021/09/13 06:16:32;;;;;;;15.38;7.47;;;;;;;;;;5053767;28;20392;-46
2021/09/13 06:18:58;;;;;;;11.32;7.03;;;;;;;;;;5053674;28;20492;-46
2021/09/13 06:21:24;;;;;;;32.15;8.20;;;;;;;;;;5053502;28;20056;-46
2021/09/13 06:23:51;;;;;;;17.67;8.32;;;;;;;;;;5053495;28;20041;-47
2021/09/13 06:26:17;;;;;;;12.27;8.00;;;;;;;;;;5053843;28;20100;-47
2021/09/13 06:28:43;;;;;;;18.42;8.07;;;;;;;;;;5053489;28;20049;-47
2021/09/13 06:31:09;;;;;;;16.23;8.95;;;;;;;;;;5053492;28;20461;-47
2021/09/13 06:33:36;;;;;;;20.58;12.13;;;;;;;;;;5053428;28;20025;-46
2021/09/13 06:36:02;;;;;;;19.02;13.20;;;;;;;;;;5053574;28;20171;-46
2021/09/13 06:38:31;;;;;;;20.50;11.48;;;;;;;;;;5053368;28;20021;-46
2021/09/13 06:40:58;;;;;;;16.13;10.73;;;;;;;;;;5053393;28;20025;-46
2021/09/13 06:43:27;;;;;;;22.65;10.05;;;;;;;;;;5053202;28;20025;-47
2021/09/13 06:45:59;;;;;;;21.58;9.38;;;;;;;;;;5053485;28;20024;-45
2021/09/13 06:48:26;;;;;;;17.65;8.80;;;;;;;;;;5053455;28;20027;-45
2021/09/13 06:50:53;;;;;;;19.23;9.32;;;;;;;;;;5053300;28;20445;-47
2021/09/13 06:53:19;;;;;;;20.85;11.48;;;;;;;;;;5053178;28;20389;-47
2021/09/13 06:55:45;;;;;;;13.82;8.68;;;;;;;;;;5052936;28;20021;-47
2021/09/13 06:58:11;;;;;;;21.98;10.55;;;;;;;;;;5052974;28;20033;-46
2021/09/13 07:00:38;;;;;;;25.50;13.18;;;;;;;;;;5052964;28;20373;-47
2021/09/13 07:03:04;;;;;;;34.88;18.08;;;;;;;;;;5052756;28;20051;-46
2021/09/13 07:05:30;;;;;;;23.25;9.68;;;;;;;;;;5054272;28;20084;-46
2021/09/13 07:07:57;;;;;;;18.45;10.93;;;;;;;;;;5057220;28;20051;-45
2021/09/13 07:10:23;;;;;;;22.92;10.40;;;;;;;;;;5057119;28;20021;-45
2021/09/13 07:12:49;;;;;;;31.30;10.88;;;;;;;;;;5056764;28;20056;-45
2021/09/13 07:15:16;;;;;;;20.50;10.90;;;;;;;;;;5056974;28;20024;-45
2021/09/13 07:17:42;;;;;;;26.65;12.35;;;;;;;;;;5056707;28;20025;-45
2021/09/13 07:20:08;;;;;;;30.30;13.98;;;;;;;;;;5055481;28;20343;-45
2021/09/13 07:22:34;;;;;;;22.40;10.80;;;;;;;;;;5056601;28;20512;-46
2021/09/13 07:25:00;;;;;;;20.65;11.18;;;;;;;;;;5056840;28;20059;-45
2021/09/13 07:27:26;;;;;;;24.25;10.05;;;;;;;;;;5056609;28;20431;-45
2021/09/13 07:29:54;;;;;;;29.33;9.95;;;;;;;;;;5056750;28;20032;-45
2021/09/13 07:32:20;;;;;;;15.77;8.52;;;;;;;;;;5056471;28;20037;-45
2021/09/13 07:34:46;;;;;;;14.93;8.45;;;;;;;;;;5056537;28;20028;-44
2021/09/13 07:37:12;;;;;;;13.60;7.90;;;;;;;;;;5056507;28;20040;-45
2021/09/13 07:39:38;;;;;;;17.52;8.93;;;;;;;;;;5056550;28;20465;-45
2021/09/13 07:42:05;;;;;;;11.32;6.68;;;;;;;;;;5056479;28;20025;-45
2021/09/13 07:44:31;;;;;;;10.15;5.75;;;;;;;;;;5056410;28;20045;-45
2021/09/13 07:46:57;;;;;;;24.17;11.25;;;;;;;;;;5056536;28;20040;-45
2021/09/13 07:49:26;;;;;;;20.83;11.85;;;;;;;;;;5056345;28;20018;-45
2021/09/13 07:51:52;;;;;;;16.35;7.80;;;;;;;;;;5056076;28;20071;-45
2021/09/13 07:54:19;;;;;;;17.65;11.05;;;;;;;;;;5056116;28;20033;-45
2021/09/13 07:56:45;;;;;;;18.25;8.13;;;;;;;;;;5056161;28;20021;-45
2021/09/13 07:59:11;;;;;;;15.82;6.93;;;;;;;;;;5056344;28;20431;-45
2021/09/13 08:01:37;;;;;;;14.35;6.60;;;;;;;;;;5056061;28;20055;-44
2021/09/13 08:04:03;;;;;;;17.60;6.78;;;;;;;;;;5055976;28;20025;-45
2021/09/13 08:06:29;;;;;;;15.20;6.88;;;;;;;;;;5054728;28;20128;-44
2021/09/13 08:08:56;;;;;;;9.90;5.70;;;;;;;;;;5055843;28;20021;-45
2021/09/13 08:11:22;;;;;;;11.90;5.30;;;;;;;;;;5055809;28;20461;-45
2021/09/13 08:13:48;;;;;;;14.55;6.80;;;;;;;;;;5055853;28;20052;-45
2021/09/13 08:16:16;;;;;;;19.08;6.85;;;;;;;;;;5055555;28;20488;-43
2021/09/13 08:18:42;;;;;;;14.38;6.65;;;;;;;;;;5055861;28;20033;-44
2021/09/13 08:21:08;;;;;;;22.10;11.38;;;;;;;;;;5055626;28;20155;-44
2021/09/13 08:23:35;;;;;;;15.70;7.53;;;;;;;;;;5055476;28;20162;-46
2021/09/13 08:26:05;;;;;;;23.40;12.43;;;;;;;;;;5055575;28;20017;-45
2021/09/13 08:28:32;;;;;;;15.77;6.88;;;;;;;;;;5055543;28;20025;-44
2021/09/13 08:30:58;;;;;;;16.08;5.85;;;;;;;;;;5055384;28;20033;-47
2021/09/13 08:33:24;;;;;;;16.05;9.63;;;;;;;;;;5055408;28;20029;-47
2021/09/13 08:35:56;;;;;;;58.78;34.40;;;;;;;;;;5055414;28;20086;-45
2021/09/13 08:38:23;;;;;;;21.02;11.48;;;;;;;;;;5055605;28;20104;-47
2021/09/13 08:40:49;;;;;;;22.92;10.55;;;;;;;;;;5055523;28;20017;-46
2021/09/13 08:43:16;;;;;;;17.27;8.18;;;;;;;;;;5055570;28;20031;-46
2021/09/13 08:53:23;;;;;;;8.00;4.03;;;;;;;;;;5055499;28;20066;-47
2021/09/13 08:55:50;;;;;;;12.43;4.18;;;;;;;;;;5055299;28;20452;-47
2021/09/13 08:58:22;;;;;;;14.73;4.30;;;;;;;;;;5055539;28;20035;-47
2021/09/13 09:00:48;;;;;;;7.95;3.50;;;;;;;;;;5055278;28;20025;-47
2021/09/13 09:03:15;;;;;;;7.50;3.67;;;;;;;;;;5055366;28;20025;-47
2021/09/13 09:05:43;;;;;;;7.88;3.53;;;;;;;;;;5055324;28;20025;-46
2021/09/13 09:08:12;;;;;;;5.55;4.07;;;;;;;;;;5055162;28;20531;-47
2021/09/13 09:10:38;;;;;;;10.20;3.80;;;;;;;;;;5055146;28;20082;-47
2021/09/13 09:13:13;;;;;;;8.82;3.90;;;;;;;;;;5055051;28;20032;-47
2021/09/13 09:15:54;;;;;;;9.23;3.78;;;;;;;;;;5054891;28;20104;-47
2021/09/13 09:18:21;;;;;;;8.30;4.00;;;;;;;;;;5055033;28;20025;-47
2021/09/13 09:20:47;;;;;;;12.55;3.58;;;;;;;;;;5054849;28;20029;-46
2021/09/13 09:23:14;;;;;;;12.40;3.78;;;;;;;;;;5054579;28;20558;-47
2021/09/13 09:25:41;;;;;;;8.27;3.40;;;;;;;;;;5054801;28;20578;-47
2021/09/13 09:28:11;;;;;;;6.45;3.78;;;;;;;;;;5054159;28;20021;-47
2021/09/13 09:30:37;;;;;;;;;;;;;;;;;;5055402;28;20017;-47
2021/09/13 09:33:13;;;;;;;12.18;4.00;;;;;;;;;;5054682;28;19923;-47
2021/09/13 09:35:41;;;;;;;8.20;3.90;;;;;;;;;;5054563;28;20112;-48
2021/09/13 09:38:07;;;;;;;12.02;4.22;;;;;;;;;;5054715;28;20043;-47
2021/09/13 09:40:33;;;;;;;8.18;3.90;;;;;;;;;;5054590;28;20021;-47
2021/09/13 09:43:04;;;;;;;10.52;3.78;;;;;;;;;;5054688;28;20075;-47
2021/09/13 09:45:30;;;;;;;;;;;;;;;;;;5054801;28;20472;-47
2021/09/13 09:48:06;;;;;;;8.07;3.92;;;;;;;;;;5054425;28;19911;-47
2021/09/13 09:50:33;;;;;;;6.03;4.00;;;;;;;;;;5054394;28;20028;-47
2021/09/13 09:53:15;;;;;;;8.77;3.13;;;;;;;;;;5054229;28;20112;-47
2021/09/13 09:55:41;;;;;;;7.05;2.67;;;;;;;;;;5054119;28;20025;-47
2021/09/13 09:58:10;;;;;;;9.10;3.50;;;;;;;;;;5054527;28;20096;-47
2021/09/13 10:00:37;;;;;;;6.35;3.15;;;;;;;;;;5054114;28;20049;-47
2021/09/13 10:03:06;;;;;;;7.75;3.13;;;;;;;;;;5054259;28;20041;-47
2021/09/13 10:05:33;;;;;;;11.63;3.22;;;;;;;;;;5054033;28;20039;-47
2021/09/13 10:08:02;;;;;;;7.85;3.13;;;;;;;;;;5054257;28;20101;-47
2021/09/13 10:10:31;;;;;;;9.40;3.28;;;;;;;;;;5054249;28;20528;-47
2021/09/13 10:12:57;;;;;;;3.55;2.72;;;;;;;;;;5053913;28;20036;-47
2021/09/13 10:15:23;;;;;;;10.88;3.63;;;;;;;;;;5053794;28;20024;-47
2021/09/13 10:17:50;;;;;;;8.02;3.83;;;;;;;;;;5054019;28;20434;-47
2021/09/13 10:20:17;;;;;;;6.75;3.08;;;;;;;;;;5053978;28;20024;-47
2021/09/13 10:22:45;;;;;;;5.97;3.35;;;;;;;;;;5053743;28;20041;-47
2021/09/13 10:25:12;;;;;;;7.80;3.80;;;;;;;;;;5053886;28;20033;-47
2021/09/13 10:27:39;;;;;;;14.40;5.13;;;;;;;;;;5053829;28;20017;-47
2021/09/13 10:30:17;;;;;;;9.60;3.33;;;;;;;;;;5053553;28;20032;-47
2021/09/13 10:32:44;;;;;;;9.23;3.22;;;;;;;;;;5053568;28;20036;-47
2021/09/13 10:35:11;;;;;;;6.55;3.03;;;;;;;;;;5053798;28;20077;-48
2021/09/13 10:37:39;;;;;;;4.65;3.10;;;;;;;;;;5053609;28;20427;-47
2021/09/13 10:40:06;;;;;;;10.23;3.63;;;;;;;;;;5052881;28;20044;-48
2021/09/13 10:42:40;;;;;;;7.68;3.25;;;;;;;;;;5053478;28;20044;-47
2021/09/13 10:45:06;;;;;;;11.27;4.10;;;;;;;;;;5053459;28;20021;-48
2021/09/13 10:47:32;;;;;;;6.30;3.40;;;;;;;;;;5053530;28;20422;-47
2021/09/13 10:50:15;;;;;;;6.90;3.97;;;;;;;;;;5053758;28;20017;-47
2021/09/13 10:52:41;;;;;;;9.15;4.05;;;;;;;;;;5053276;28;20040;-47
2021/09/13 10:55:13;;;;;;;8.40;3.40;;;;;;;;;;5053334;28;20024;-47
2021/09/13 10:57:52;;;;;;;8.60;3.40;;;;;;;;;;5053073;28;20124;-47
2021/09/13 11:00:36;;;;;;;10.52;3.92;;;;;;;;;;5053315;28;20028;-47
2021/09/13 11:03:21;;;;;;;10.10;3.75;;;;;;;;;;5053219;28;20033;-47
2021/09/13 11:05:47;;;;;;;7.85;3.40;;;;;;;;;;5053096;28;20025;-47
2021/09/13 11:08:23;;;;;;;4.78;2.97;;;;;;;;;;5053547;28;20044;-48
2021/09/13 11:10:49;;;;;;;8.10;2.95;;;;;;;;;;5053256;28;20017;-47
2021/09/13 11:13:17;;;;;;;7.85;3.47;;;;;;;;;;5053118;28;20465;-47
2021/09/13 11:15:50;;;;;;;22.77;4.10;;;;;;;;;;5053133;28;20033;-52
2021/09/13 11:18:31;;;;;;;9.30;3.22;;;;;;;;;;5053376;28;20032;-48
2021/09/13 11:21:13;;;;;;;18.30;3.15;;;;;;;;;;5053514;28;20491;-47
2021/09/13 11:23:40;;;;;;;7.25;3.17;;;;;;;;;;5053006;28;20049;-46
2021/09/13 11:26:06;;;;;;;9.32;3.00;;;;;;;;;;5053078;28;20374;-47
2021/09/13 11:28:32;;;;;;;7.30;3.10;;;;;;;;;;5053173;28;20033;-47
2021/09/13 11:30:58;;;;;;;5.68;2.80;;;;;;;;;;5052956;28;20096;-47
2021/09/13 11:33:24;;;;;;;7.63;2.78;;;;;;;;;;5053058;28;20385;-47
2021/09/13 11:35:56;;;;;;;6.80;2.85;;;;;;;;;;5052971;28;20028;-47
2021/09/13 11:38:22;;;;;;;10.75;2.67;;;;;;;;;;5053247;28;20377;-47
2021/09/13 11:40:48;;;;;;;8.15;2.75;;;;;;;;;;5053129;28;20021;-47
2021/09/13 11:43:14;;;;;;;7.53;3.50;;;;;;;;;;5053342;28;20025;-47
2021/09/13 11:45:40;;;;;;;4.32;2.42;;;;;;;;;;5052895;28;20028;-47
2021/09/13 11:48:07;;;;;;;10.73;2.92;;;;;;;;;;5053317;28;20025;-47
2021/09/13 11:50:36;;;;;;;7.32;3.00;;;;;;;;;;5053065;28;20044;-47
2021/09/13 11:53:15;;;;;;;9.57;3.38;;;;;;;;;;5056372;28;20037;-47
2021/09/13 11:55:41;;;;;;;11.20;3.33;;;;;;;;;;5056629;28;20017;-47
2021/09/13 11:58:08;;;;;;;12.80;2.80;;;;;;;;;;5056460;28;20025;-48
2021/09/13 12:00:38;;;;;;;9.38;3.00;;;;;;;;;;5056428;28;20025;-47
2021/09/13 12:03:05;;;;;;;8.23;3.83;;;;;;;;;;5056496;28;20083;-48
2021/09/13 12:05:36;;;;;;;7.60;3.50;;;;;;;;;;5056455;28;20021;-48
2021/09/13 12:08:03;;;;;;;10.43;4.00;;;;;;;;;;5055092;28;20393;-48
2021/09/13 12:10:34;;;;;;;8.55;3.47;;;;;;;;;;5056417;28;20021;-47
2021/09/13 12:13:10;;;;;;;3.45;2.85;;;;;;;;;;5056033;28;20118;-48
2021/09/13 12:15:36;;;;;;;9.85;3.92;;;;;;;;;;5056471;28;20079;-47
2021/09/13 12:18:09;;;;;;;11.68;3.90;;;;;;;;;;5056141;28;20493;-47
2021/09/13 12:20:36;;;;;;;7.20;3.08;;;;;;;;;;5056122;28;20021;-48
2021/09/13 12:23:06;;;;;;;6.75;3.00;;;;;;;;;;5055896;28;20041;-48
2021/09/13 12:25:32;;;;;;;;;;;;;;;;;;5056586;28;20035;-47
2021/09/13 12:28:02;;;;;;;15.48;7.13;;;;;;;;;;5055880;28;20364;-47
2021/09/13 12:30:30;;;;;;;8.25;3.88;;;;;;;;;;5054339;28;20061;-48
2021/09/13 12:32:58;;;;;;;7.90;3.03;;;;;;;;;;5055723;28;20079;-46
2021/09/13 12:35:35;;;;;;;8.07;3.20;;;;;;;;;;5055882;28;20389;-47
2021/09/13 12:38:02;;;;;;;9.18;3.13;;;;;;;;;;5055722;28;20112;-47
2021/09/13 12:40:28;;;;;;;8.60;2.80;;;;;;;;;;5055660;28;20013;-47
2021/09/13 12:42:59;;;;;;;9.88;3.90;;;;;;;;;;5055742;28;20373;-47
2021/09/13 12:45:28;;;;;;;10.50;3.08;;;;;;;;;;5055688;28;20025;-47
2021/09/13 12:47:54;;;;;;;8.45;3.45;;;;;;;;;;5055679;28;20025;-47
2021/09/13 12:50:29;;;;;;;7.90;3.33;;;;;;;;;;5055911;28;20025;-48
2021/09/13 12:52:56;;;;;;;4.72;3.00;;;;;;;;;;5055314;28;20033;-48
2021/09/13 12:55:23;;;;;;;6.28;3.55;;;;;;;;;;5055633;28;20048;-47
2021/09/13 12:57:50;;;;;;;12.45;4.05;;;;;;;;;;5055467;28;20025;-47
2021/09/13 13:00:16;;;;;;;4.25;3.28;;;;;;;;;;5055671;28;20045;-47
2021/09/13 13:02:46;;;;;;;7.32;2.97;;;;;;;;;;5054366;28;20090;-47
2021/09/13 13:05:33;;;;;;;6.78;2.45;;;;;;;;;;5055303;28;20501;-47
2021/09/13 13:08:01;;;;;;;8.00;2.83;;;;;;;;;;5055182;28;20109;-47
2021/09/13 13:10:27;;;;;;;8.73;3.13;;;;;;;;;;5055251;28;20036;-47
2021/09/13 13:12:53;;;;;;;4.22;2.83;;;;;;;;;;5055078;28;20040;-47
2021/09/13 13:15:19;;;;;;;4.78;2.75;;;;;;;;;;5055295;28;20052;-47
2021/09/13 13:17:47;;;;;;;6.78;3.00;;;;;;;;;;5054867;28;20031;-47
2021/09/13 13:20:16;;;;;;;8.75;2.83;;;;;;;;;;5054359;28;20029;-47
2021/09/13 13:22:45;;;;;;;6.78;2.75;;;;;;;;;;5054256;28;20045;-46
2021/09/13 13:25:11;;;;;;;4.47;2.33;;;;;;;;;;5051624;28;20025;-47
2021/09/13 13:27:38;;;;;;;10.48;2.95;;;;;;;;;;5054017;28;20028;-47
2021/09/13 13:30:04;;;;;;;15.90;6.82;;;;;;;;;;5054243;28;20025;-47
2021/09/13 13:32:31;;;;;;;24.27;14.80;;;;;;;;;;5051014;28;20024;-47
2021/09/13 13:34:57;;;;;;;38.05;28.08;;;;;;;;;;5053563;28;20092;-46
2021/09/13 13:37:24;;;;;;;27.63;17.50;;;;;;;;;;5053967;28;20068;-47
2021/09/13 13:39:51;;;;;;;21.05;15.68;;;;;;;;;;5053979;28;20020;-46
2021/09/13 13:42:17;;;;;;;24.55;12.90;;;;;;;;;;5053470;28;20099;-46
2021/09/13 13:44:43;;;;;;;38.58;27.55;;;;;;;;;;5053642;28;20100;-45
2021/09/13 13:47:09;;;;;;;16.40;8.82;;;;;;;;;;5053542;28;20052;-46
2021/09/13 13:49:35;;;;;;;13.52;7.72;;;;;;;;;;5053403;28;20021;-46
2021/09/13 13:52:02;;;;;;;19.30;10.13;;;;;;;;;;5053005;28;20029;-45
2021/09/13 13:54:28;;;;;;;21.50;11.35;;;;;;;;;;5053324;28;20027;-47
2021/09/13 13:56:54;;;;;;;11.85;5.55;;;;;;;;;;5053805;28;20025;-46
2021/09/13 13:59:20;;;;;;;15.93;9.50;;;;;;;;;;5053949;28;20032;-47
2021/09/13 14:01:46;;;;;;;9.63;4.65;;;;;;;;;;5053667;28;20052;-47
2021/09/13 14:04:12;;;;;;;13.00;6.15;;;;;;;;;;5053592;28;20499;-47
2021/09/13 14:06:38;;;;;;;26.73;15.30;;;;;;;;;;5053681;28;20453;-45
2021/09/13 14:09:04;;;;;;;55.78;33.13;;;;;;;;;;5053720;28;20025;-46
2021/09/13 14:11:31;;;;;;;61.08;38.92;;;;;;;;;;5053765;28;20047;-46
2021/09/13 14:13:57;;;;;;;62.80;37.35;;;;;;;;;;5053467;28;20021;-47
2021/09/13 14:16:25;;;;;;;17.40;9.73;;;;;;;;;;5053112;28;20354;-46
2021/09/13 14:18:54;;;;;;;26.23;15.45;;;;;;;;;;5053446;28;20036;-46
2021/09/13 14:21:20;;;;;;;7.72;5.15;;;;;;;;;;5053281;28;20498;-44
2021/09/13 14:23:49;;;;;;;22.23;11.90;;;;;;;;;;5052939;28;20056;-46
2021/09/13 14:26:15;;;;;;;19.13;11.23;;;;;;;;;;5052891;28;20060;-45
2021/09/13 14:28:41;;;;;;;35.08;18.23;;;;;;;;;;5053393;28;20047;-46
2021/09/13 14:31:07;;;;;;;31.98;18.30;;;;;;;;;;5053072;28;20544;-46
2021/09/13 14:33:35;;;;;;;12.90;6.70;;;;;;;;;;5052962;28;20097;-47
2021/09/13 14:36:01;;;;;;;26.40;13.85;;;;;;;;;;5051576;28;20075;-44
2021/09/13 14:38:27;;;;;;;61.17;36.13;;;;;;;;;;5052022;28;20024;-45
2021/09/13 14:40:54;;;;;;;23.63;16.50;;;;;;;;;;5051800;28;20052;-44